Holton, Kansas
Current Conditions -  °F | °C
As of 4:53 AM on Sunday 23 Nov 2014 (Local Time) from KTOP Reporting Station
Haze Haze  
Wind Chill: 55°   Ceiling: 700
Heat Index: 55°   Visibility: 5mi
Dew Point: 53°   Wind: 13mph
Humidity: 93%   Direction: 140°SE
Pressure: 29.52"   Gusts: NA
Location:  39.47°N, 95.74°W
Report Text: KTOP 231053Z AUTO 14011KT 5SM BR OVC007 13/12 A2952 RMK AO2 SLP994 T01280117
Loading
Personal Weather Stations






























Interactive Weather Map New forecast layout! Learn more

10-Day Weather Forecast

Advertisements
Track Severe Weather on mobile